Terminal Aerodrome Forecast
Issued by NWS

Home | Current Version | Previous Version | Text Only | Print | Product List | Glossary On
Versions: 1 2 3 4 5 6 7 8 9 10 11 12 13 14 15 16 17 18
000
FTUS44 KLZK 011100
TAFLLQ
TAF
KLLQ 011136Z 0112/0212 24006KT P6SM SCT250
     FM011600 23008KT P6SM SCT050 BKN250
     FM011900 23009G18KT P6SM VCTS SCT050CB SCT100 BKN250=

USA.gov is the U.S. government's official web portal to all federal, state and local government web resources and services.